createdAt,value
2023-02-04T00:01:55.024Z,9.80
2023-02-04T00:04:26.918Z,7.50
2023-02-04T00:06:55.982Z,7.40
2023-02-04T00:09:25.082Z,8.60
2023-02-04T00:11:53.861Z,5.20
2023-02-04T00:14:22.440Z,5.40
2023-02-04T00:16:51.398Z,5.50
2023-02-04T00:19:20.378Z,5.00
2023-02-04T00:21:50.034Z,6.00
2023-02-04T00:24:18.754Z,5.00
2023-02-04T00:26:47.673Z,7.10
2023-02-04T00:29:16.246Z,7.50
2023-02-04T00:31:44.971Z,11.00
2023-02-04T00:34:14.317Z,7.60
2023-02-04T00:36:43.407Z,6.50
2023-02-04T00:39:13.446Z,7.30
2023-02-04T00:41:43.184Z,12.20
2023-02-04T00:44:14.712Z,13.30
2023-02-04T00:46:43.968Z,12.10
2023-02-04T00:49:13.337Z,11.30
2023-02-04T00:51:47.134Z,9.90
2023-02-04T00:54:16.344Z,11.00
2023-02-04T00:56:45.794Z,14.20
2023-02-04T00:59:16.572Z,10.00
2023-02-04T01:01:45.822Z,8.80
2023-02-04T01:04:15.281Z,8.10
2023-02-04T01:06:44.356Z,6.80
2023-02-04T01:09:14.437Z,5.00
2023-02-04T01:11:43.383Z,9.60
2023-02-04T01:14:13.682Z,13.20
2023-02-04T01:16:42.470Z,11.40
2023-02-04T01:19:11.946Z,14.60
2023-02-04T01:21:41.107Z,15.00
2023-02-04T01:24:10.100Z,7.30
2023-02-04T01:26:39.425Z,7.40
2023-02-04T01:29:08.502Z,9.90
2023-02-04T01:31:37.385Z,8.90
2023-02-04T01:34:07.765Z,7.30
2023-02-04T01:36:36.465Z,8.20
2023-02-04T01:39:05.542Z,8.90
2023-02-04T01:41:34.768Z,8.30
2023-02-04T01:44:03.853Z,13.90
2023-02-04T01:46:35.157Z,11.40
2023-02-04T01:49:07.034Z,16.80
2023-02-04T01:51:37.714Z,16.80
2023-02-04T01:54:11.289Z,21.50
2023-02-04T01:56:43.750Z,13.20
2023-02-04T01:59:14.731Z,13.30
2023-02-04T02:01:49.751Z,14.90
2023-02-04T02:04:24.910Z,17.10
2023-02-04T02:06:59.187Z,13.50
2023-02-04T02:09:30.343Z,9.60
2023-02-04T02:12:01.390Z,7.00
2023-02-04T02:14:30.732Z,10.00
2023-02-04T02:17:01.087Z,8.00
2023-02-04T02:19:37.270Z,7.90
2023-02-04T02:22:16.995Z,7.40
2023-02-04T02:24:45.996Z,6.90
2023-02-04T02:27:15.036Z,7.60
2023-02-04T02:29:44.672Z,7.30
2023-02-04T02:32:16.567Z,6.90
2023-02-04T02:34:47.023Z,5.60
2023-02-04T02:37:15.916Z,5.80
2023-02-04T02:39:46.536Z,5.50
2023-02-04T02:42:18.221Z,5.80
2023-02-04T02:44:49.252Z,6.20
2023-02-04T02:47:21.877Z,6.20
2023-02-04T02:49:53.687Z,8.00
2023-02-04T02:52:23.517Z,7.20
2023-02-04T02:54:54.173Z,6.70
2023-02-04T02:57:24.157Z,6.00
2023-02-04T02:59:52.993Z,6.80
2023-02-04T03:02:23.819Z,6.00
2023-02-04T03:04:57.353Z,7.90
2023-02-04T03:07:26.471Z,7.10
2023-02-04T03:09:55.420Z,7.00
2023-02-04T03:12:24.913Z,6.60
2023-02-04T03:14:54.466Z,7.30
2023-02-04T03:17:23.973Z,7.60
2023-02-04T03:19:52.920Z,8.00
2023-02-04T03:22:22.459Z,5.80
2023-02-04T03:24:51.377Z,8.10
2023-02-04T03:27:20.397Z,6.80
2023-02-04T03:29:49.229Z,7.80
2023-02-04T03:32:18.491Z,7.70
2023-02-04T03:34:47.155Z,13.20
2023-02-04T03:37:15.920Z,12.20
2023-02-04T03:39:45.756Z,14.50
2023-02-04T03:42:18.165Z,13.20
2023-02-04T03:44:47.116Z,20.70
2023-02-04T03:47:15.938Z,22.20
2023-02-04T03:49:44.953Z,24.70
2023-02-04T03:52:13.660Z,35.30
2023-02-04T03:54:42.333Z,31.90
2023-02-04T03:57:12.557Z,44.50
2023-02-04T03:59:41.549Z,23.00
2023-02-04T04:02:10.454Z,21.90
2023-02-04T04:04:39.506Z,30.50
2023-02-04T04:07:08.184Z,41.90
2023-02-04T04:09:37.263Z,33.20
2023-02-04T04:12:06.470Z,21.30
2023-02-04T04:14:35.272Z,15.00
2023-02-04T04:17:04.285Z,15.40
2023-02-04T04:19:33.638Z,13.00
2023-02-04T04:22:02.496Z,8.00
2023-02-04T04:24:31.380Z,8.60
2023-02-04T04:27:00.559Z,8.30
2023-02-04T04:29:29.695Z,8.80
2023-02-04T04:31:58.941Z,10.30
2023-02-04T04:34:27.909Z,8.10
2023-02-04T04:36:56.763Z,8.00
2023-02-04T04:39:26.671Z,8.90
2023-02-04T04:41:55.501Z,8.50
2023-02-04T04:44:24.619Z,9.90
2023-02-04T04:46:53.312Z,8.20
2023-02-04T04:49:22.901Z,6.40
2023-02-04T04:51:51.583Z,6.60
2023-02-04T04:54:20.365Z,7.50
2023-02-04T04:56:49.031Z,6.80
2023-02-04T04:59:18.705Z,9.00
2023-02-04T05:01:47.207Z,7.90
2023-02-04T05:04:16.063Z,17.00
2023-02-04T05:06:45.536Z,18.50
2023-02-04T05:09:15.748Z,23.10
2023-02-04T05:11:44.766Z,26.50
2023-02-04T05:14:13.347Z,16.40
2023-02-04T05:16:42.173Z,16.50
2023-02-04T05:19:11.154Z,12.00
2023-02-04T05:21:40.172Z,9.30
2023-02-04T05:24:09.736Z,9.80
2023-02-04T05:26:39.267Z,10.00
2023-02-04T05:29:10.623Z,10.20
2023-02-04T05:31:40.322Z,10.00
2023-02-04T05:34:09.930Z,9.40
2023-02-04T05:36:39.500Z,9.00
2023-02-04T05:39:08.412Z,9.80
2023-02-04T05:41:37.357Z,8.90
2023-02-04T05:44:06.254Z,8.10
2023-02-04T05:46:35.204Z,7.70
2023-02-04T05:49:04.114Z,8.20
2023-02-04T05:51:32.762Z,7.20
2023-02-04T05:54:01.606Z,7.50
2023-02-04T05:56:30.721Z,7.00
2023-02-04T05:58:59.486Z,6.60
2023-02-04T06:01:28.431Z,6.50
2023-02-04T06:03:57.153Z,5.80
2023-02-04T06:06:25.987Z,6.00
2023-02-04T06:08:54.700Z,6.10
2023-02-04T06:11:23.626Z,6.20
2023-02-04T06:13:52.607Z,6.00
2023-02-04T06:16:21.559Z,5.80
2023-02-04T06:18:50.565Z,5.50
2023-02-04T06:21:19.296Z,6.40
2023-02-04T06:23:47.973Z,8.30
2023-02-04T06:26:16.724Z,6.30
2023-02-04T06:28:45.851Z,6.50
2023-02-04T06:31:14.899Z,6.90
2023-02-04T06:33:44.242Z,7.70
2023-02-04T06:36:13.392Z,8.00
2023-02-04T06:38:42.587Z,9.30
2023-02-04T06:41:11.343Z,8.20
2023-02-04T06:43:40.120Z,9.70
2023-02-04T06:46:08.904Z,8.10
2023-02-04T06:48:37.864Z,9.30
2023-02-04T06:51:07.680Z,9.60
2023-02-04T06:53:37.231Z,8.30
2023-02-04T06:56:06.959Z,10.00
2023-02-04T06:58:35.941Z,9.70
2023-02-04T07:01:07.145Z,9.70
2023-02-04T07:03:36.171Z,9.00
2023-02-04T07:06:06.028Z,9.50
2023-02-04T07:08:35.684Z,9.30
2023-02-04T07:11:04.577Z,9.40
2023-02-04T07:13:33.854Z,9.10
2023-02-04T07:16:03.765Z,8.70
2023-02-04T07:18:32.608Z,9.70
2023-02-04T07:21:01.579Z,12.60
2023-02-04T07:23:30.773Z,10.30
2023-02-04T07:26:00.408Z,15.30
2023-02-04T07:28:30.060Z,12.00
2023-02-04T07:30:59.423Z,10.00
2023-02-04T07:33:28.886Z,9.60
2023-02-04T07:35:58.450Z,9.70
2023-02-04T07:38:27.613Z,10.10
2023-02-04T07:40:56.490Z,9.90
2023-02-04T07:43:25.858Z,9.60
2023-02-04T07:45:55.634Z,9.20
2023-02-04T07:48:24.492Z,10.40
2023-02-04T07:50:53.774Z,11.60
2023-02-04T07:53:22.712Z,11.30
2023-02-04T07:55:51.481Z,15.40
2023-02-04T07:58:20.868Z,15.00
2023-02-04T08:00:49.887Z,14.40
2023-02-04T08:03:18.696Z,14.70
2023-02-04T08:05:47.364Z,14.10
2023-02-04T08:08:17.404Z,16.40
2023-02-04T08:10:46.868Z,16.20
2023-02-04T08:13:16.945Z,14.90
2023-02-04T08:15:46.488Z,14.70
2023-02-04T08:18:16.235Z,15.00
2023-02-04T08:20:45.276Z,9.90
2023-02-04T08:23:14.196Z,12.60
2023-02-04T08:25:43.683Z,12.40
2023-02-04T08:28:13.205Z,17.60
2023-02-04T08:30:42.665Z,16.20
2023-02-04T08:33:11.874Z,15.20
2023-02-04T08:35:40.585Z,15.20
2023-02-04T08:38:09.444Z,14.00
2023-02-04T08:40:38.287Z,12.80
2023-02-04T08:43:07.412Z,13.10
2023-02-04T08:45:36.624Z,12.60
2023-02-04T08:48:05.380Z,13.00
2023-02-04T08:50:34.398Z,16.30
2023-02-04T08:53:03.532Z,29.60
2023-02-04T08:55:32.928Z,26.30
2023-02-04T08:58:03.995Z,24.40
2023-02-04T09:00:34.288Z,16.30
2023-02-04T09:03:04.143Z,12.00
2023-02-04T09:05:34.016Z,16.50
2023-02-04T09:08:02.955Z,10.60
2023-02-04T09:10:32.558Z,9.20
2023-02-04T09:13:01.676Z,6.90
2023-02-04T09:15:31.125Z,12.70
2023-02-04T09:18:11.749Z,8.50
2023-02-04T09:20:41.161Z,8.60
2023-02-04T09:23:12.863Z,6.30
2023-02-04T09:25:44.783Z,7.60
2023-02-04T09:28:15.234Z,6.50
2023-02-04T09:30:46.292Z,23.30
2023-02-04T09:33:17.875Z,16.40
2023-02-04T09:35:47.247Z,22.80
2023-02-04T09:38:17.167Z,23.50
2023-02-04T09:40:51.863Z,9.30
2023-02-04T09:43:35.832Z,5.30
2023-02-04T09:46:06.270Z,4.50
2023-02-04T09:48:35.939Z,4.60
2023-02-04T09:51:08.390Z,4.40
2023-02-04T09:53:38.998Z,4.90
2023-02-04T09:56:11.678Z,6.20
2023-02-04T09:58:41.737Z,4.90
2023-02-04T10:01:20.478Z,7.10
2023-02-04T10:03:51.949Z,4.80
2023-02-04T10:06:24.078Z,4.90
2023-02-04T10:08:54.796Z,5.40
2023-02-04T10:11:28.369Z,6.50
2023-02-04T10:13:57.964Z,4.90
2023-02-04T10:16:33.102Z,5.00
2023-02-04T10:19:12.360Z,6.10
2023-02-04T10:21:44.454Z,6.00
2023-02-04T10:24:21.260Z,4.90
2023-02-04T10:26:50.288Z,5.10
2023-02-04T10:29:21.886Z,4.80
2023-02-04T10:31:52.837Z,5.90
2023-02-04T10:34:40.274Z,5.70
2023-02-04T10:37:21.758Z,3.90
2023-02-04T10:39:50.773Z,4.70
2023-02-04T10:42:29.716Z,4.10
2023-02-04T10:44:59.825Z,5.50
2023-02-04T10:47:32.039Z,4.90
2023-02-04T10:50:09.423Z,5.00
2023-02-04T10:52:50.186Z,5.90
2023-02-04T10:55:23.415Z,5.00
2023-02-04T10:57:54.951Z,4.80
2023-02-04T11:00:29.045Z,5.10
2023-02-04T11:03:11.896Z,6.10
2023-02-04T11:05:41.628Z,6.40
2023-02-04T11:08:37.806Z,4.70
2023-02-04T11:11:09.333Z,6.00
2023-02-04T11:13:45.282Z,5.70
2023-02-04T11:16:42.688Z,6.50
2023-02-04T11:19:15.317Z,6.50
2023-02-04T11:21:47.959Z,5.10
2023-02-04T11:24:17.629Z,7.00
2023-02-04T11:26:51.710Z,4.50
2023-02-04T11:29:35.164Z,6.00
2023-02-04T11:32:07.649Z,5.90
2023-02-04T11:34:49.216Z,5.30
2023-02-04T11:37:42.321Z,4.80
2023-02-04T11:40:33.561Z,5.10
2023-02-04T11:43:13.820Z,5.40
2023-02-04T11:45:44.571Z,4.60
2023-02-04T11:48:18.604Z,4.40
2023-02-04T11:51:00.473Z,3.90
2023-02-04T11:53:35.546Z,4.70
2023-02-04T11:56:05.515Z,5.00
2023-02-04T11:58:34.744Z,4.30
2023-02-04T12:01:09.751Z,5.30
2023-02-04T12:03:47.990Z,4.40
2023-02-04T12:06:28.240Z,5.00
2023-02-04T12:09:10.279Z,5.80
2023-02-04T12:11:41.465Z,4.50
2023-02-04T12:14:18.810Z,4.90
2023-02-04T12:16:54.071Z,8.10
2023-02-04T12:19:25.653Z,5.50
2023-02-04T12:21:58.779Z,4.60
2023-02-04T12:24:28.922Z,4.80
2023-02-04T12:26:59.177Z,5.90
2023-02-04T12:29:30.558Z,4.40
2023-02-04T12:32:00.091Z,5.40
2023-02-04T12:34:30.153Z,5.90
2023-02-04T12:36:59.550Z,5.90
2023-02-04T12:39:29.088Z,7.20
2023-02-04T12:41:58.157Z,5.50
2023-02-04T12:44:31.257Z,5.30
2023-02-04T12:47:00.227Z,4.70
2023-02-04T12:49:29.686Z,5.20
2023-02-04T12:52:02.574Z,5.70
2023-02-04T12:54:31.745Z,7.20
2023-02-04T12:57:03.635Z,5.10
2023-02-04T12:59:32.870Z,5.30
2023-02-04T13:02:02.447Z,5.30
2023-02-04T13:04:33.045Z,5.00
2023-02-04T13:07:03.664Z,5.20
2023-02-04T13:09:34.611Z,4.60
2023-02-04T13:12:04.692Z,7.10
2023-02-04T13:14:33.973Z,5.50
2023-02-04T13:17:03.616Z,5.50
2023-02-04T13:19:33.156Z,5.70
2023-02-04T13:22:03.159Z,4.60
2023-02-04T13:24:32.216Z,4.90
2023-02-04T13:27:01.938Z,5.90
2023-02-04T13:29:31.075Z,6.30
2023-02-04T13:31:59.865Z,5.40
2023-02-04T13:34:28.876Z,4.70
2023-02-04T13:36:57.991Z,5.40
2023-02-04T13:39:26.940Z,5.90
2023-02-04T13:41:57.005Z,6.00
2023-02-04T13:44:26.110Z,5.60
2023-02-04T13:46:55.015Z,5.20
2023-02-04T13:49:24.152Z,6.20
2023-02-04T13:51:53.178Z,5.50
2023-02-04T13:54:21.834Z,4.80
2023-02-04T13:56:50.547Z,5.70
2023-02-04T13:59:20.976Z,5.40
2023-02-04T14:01:49.963Z,5.20
2023-02-04T14:04:18.770Z,5.50
2023-02-04T14:06:48.086Z,6.40
2023-02-04T14:09:17.137Z,5.80
2023-02-04T14:11:46.628Z,6.30
2023-02-04T14:14:16.246Z,5.10
2023-02-04T14:16:45.015Z,5.60
2023-02-04T14:19:14.699Z,5.00
2023-02-04T14:21:43.933Z,4.50
2023-02-04T14:24:14.318Z,4.80
2023-02-04T14:26:44.479Z,4.90
2023-02-04T14:29:13.541Z,5.00
2023-02-04T14:31:44.688Z,5.10
2023-02-04T14:34:13.838Z,3.80
2023-02-04T14:36:43.347Z,5.20
2023-02-04T14:39:14.950Z,5.50
2023-02-04T14:41:43.985Z,4.40
2023-02-04T14:44:13.360Z,5.00
2023-02-04T14:46:44.923Z,6.00
2023-02-04T14:49:14.309Z,4.60
2023-02-04T14:51:43.419Z,5.40
2023-02-04T14:54:12.592Z,4.80
2023-02-04T14:56:41.760Z,3.90
2023-02-04T14:59:10.919Z,6.70
2023-02-04T15:01:40.662Z,4.50
2023-02-04T15:04:12.025Z,4.50
2023-02-04T15:06:41.622Z,6.70
2023-02-04T15:09:11.790Z,5.00
2023-02-04T15:11:42.176Z,5.20
2023-02-04T15:14:13.071Z,4.80
2023-02-04T15:16:44.030Z,6.70
2023-02-04T15:19:14.985Z,7.00
2023-02-04T15:21:47.342Z,4.80
2023-02-04T15:24:16.786Z,5.90
2023-02-04T15:26:47.120Z,15.10
2023-02-04T15:29:16.525Z,9.80
2023-02-04T15:31:45.956Z,8.50
2023-02-04T15:34:15.249Z,9.00
2023-02-04T15:36:44.655Z,14.40
2023-02-04T15:39:13.706Z,9.40
2023-02-04T15:41:42.816Z,8.80
2023-02-04T15:44:13.207Z,6.90
2023-02-04T15:46:42.820Z,9.30
2023-02-04T15:49:12.068Z,18.50
2023-02-04T15:51:42.053Z,7.90
2023-02-04T15:54:12.910Z,9.80
2023-02-04T15:56:43.630Z,8.30
2023-02-04T15:59:16.258Z,9.30
2023-02-04T16:01:45.324Z,10.70
2023-02-04T16:04:14.557Z,10.40
2023-02-04T16:06:53.499Z,20.90
2023-02-04T16:09:27.510Z,19.70
2023-02-04T16:11:56.647Z,18.80
2023-02-04T16:14:26.596Z,8.30
2023-02-04T16:16:55.765Z,5.00
2023-02-04T16:19:25.813Z,6.70
2023-02-04T16:21:54.825Z,8.70
2023-02-04T16:24:23.810Z,6.90
2023-02-04T16:26:52.791Z,9.40
2023-02-04T16:29:21.976Z,11.50
2023-02-04T16:31:50.875Z,13.10
2023-02-04T16:34:20.059Z,14.80
2023-02-04T16:36:48.789Z,20.00
2023-02-04T16:39:17.946Z,20.10
2023-02-04T16:41:46.813Z,21.20
2023-02-04T16:44:16.945Z,18.80
2023-02-04T16:46:46.189Z,21.50
2023-02-04T16:49:15.891Z,21.50
2023-02-04T16:51:45.133Z,20.10
2023-02-04T16:54:15.462Z,20.20
2023-02-04T16:56:45.322Z,18.50
2023-02-04T16:59:14.889Z,22.80
2023-02-04T17:01:44.218Z,24.40
2023-02-04T17:04:14.290Z,21.40
2023-02-04T17:06:43.550Z,15.30
2023-02-04T17:09:13.172Z,9.00
2023-02-04T17:11:43.050Z,14.50
2023-02-04T17:14:17.612Z,11.30
2023-02-04T17:16:48.968Z,13.00
2023-02-04T17:19:20.565Z,13.80
2023-02-04T17:21:49.844Z,7.90
2023-02-04T17:24:18.857Z,8.80
2023-02-04T17:26:47.946Z,12.80
2023-02-04T17:29:22.202Z,8.00
2023-02-04T17:31:53.254Z,11.20
2023-02-04T17:34:22.198Z,22.60
2023-02-04T17:36:51.079Z,16.70
2023-02-04T17:39:20.611Z,12.30
2023-02-04T17:41:49.739Z,10.10
2023-02-04T17:44:20.625Z,10.60
2023-02-04T17:46:49.492Z,11.10
2023-02-04T17:49:18.592Z,11.70
2023-02-04T17:51:48.125Z,17.30
2023-02-04T17:54:17.668Z,24.50
2023-02-04T17:56:48.805Z,18.10
2023-02-04T17:59:19.116Z,14.80
2023-02-04T18:01:49.413Z,12.30
2023-02-04T18:04:19.665Z,12.50
2023-02-04T18:06:51.842Z,11.60
2023-02-04T18:09:21.312Z,13.10
2023-02-04T18:11:50.405Z,13.60
2023-02-04T18:14:28.609Z,18.20
2023-02-04T18:17:01.042Z,14.70
2023-02-04T18:19:32.267Z,15.20
2023-02-04T18:22:01.554Z,18.20
2023-02-04T18:24:36.927Z,20.50
2023-02-04T18:27:24.327Z,43.30
2023-02-04T18:29:55.974Z,23.30
2023-02-04T18:32:43.252Z,14.00
2023-02-04T18:35:33.404Z,13.40
2023-02-04T18:38:03.524Z,14.80
2023-02-04T18:40:34.058Z,38.50
2023-02-04T18:43:25.261Z,19.10
2023-02-04T18:45:55.153Z,13.50
2023-02-04T18:48:24.510Z,10.70
2023-02-04T18:50:55.104Z,20.30
2023-02-04T18:53:29.136Z,34.60
2023-02-04T18:56:02.622Z,44.70
2023-02-04T18:58:37.874Z,52.30
2023-02-04T19:01:13.301Z,14.40
2023-02-04T19:04:04.004Z,11.30
2023-02-04T19:06:44.463Z,12.50
2023-02-04T19:09:14.526Z,12.20
2023-02-04T19:11:49.490Z,10.30
2023-02-04T19:14:27.981Z,12.10
2023-02-04T19:17:23.325Z,25.90
2023-02-04T19:19:53.327Z,16.60
2023-02-04T19:22:48.498Z,12.00
2023-02-04T19:25:34.383Z,10.90
2023-02-04T19:28:19.132Z,16.70
2023-02-04T19:30:52.049Z,30.00
2023-02-04T19:33:28.130Z,30.10
2023-02-04T19:35:58.184Z,27.40
2023-02-04T19:38:46.389Z,21.30
2023-02-04T19:41:51.628Z,65.50
2023-02-04T19:44:35.586Z,17.20
2023-02-04T19:47:44.230Z,15.60
2023-02-04T19:50:13.316Z,14.20
2023-02-04T19:53:12.436Z,14.60
2023-02-04T19:55:52.255Z,47.80
2023-02-04T19:58:28.383Z,31.50
2023-02-04T20:01:26.551Z,9.70
2023-02-04T20:03:55.673Z,12.20
2023-02-04T20:06:31.415Z,20.20
2023-02-04T20:09:10.538Z,10.40
2023-02-04T20:11:44.848Z,9.90
2023-02-04T20:14:14.396Z,8.60
2023-02-04T20:16:58.953Z,8.90
2023-02-04T20:19:36.481Z,9.40
2023-02-04T20:22:08.691Z,11.70
2023-02-04T20:24:42.248Z,10.50
2023-02-04T20:27:25.758Z,9.70
2023-02-04T20:30:14.618Z,9.80
2023-02-04T20:32:46.422Z,9.80
2023-02-04T20:35:22.230Z,9.50
2023-02-04T20:37:54.954Z,9.40
2023-02-04T20:40:29.940Z,11.40
2023-02-04T20:43:07.157Z,10.50
2023-02-04T20:45:50.668Z,10.10
2023-02-04T20:48:26.041Z,8.20
2023-02-04T20:50:58.029Z,4.90
2023-02-04T20:54:11.914Z,6.50
2023-02-04T20:56:42.078Z,5.40
2023-02-04T20:59:30.746Z,6.50
2023-02-04T21:02:02.685Z,4.80
2023-02-04T21:04:52.439Z,7.20
2023-02-04T21:07:23.009Z,4.00
2023-02-04T21:09:52.072Z,5.00
2023-02-04T21:12:22.408Z,4.90
2023-02-04T21:14:52.794Z,5.20
2023-02-04T21:17:21.932Z,4.60
2023-02-04T21:19:51.165Z,3.30
2023-02-04T21:22:21.013Z,4.70
2023-02-04T21:24:50.403Z,3.50
2023-02-04T21:27:22.646Z,4.00
2023-02-04T21:29:52.596Z,3.70
2023-02-04T21:32:25.044Z,4.50
2023-02-04T21:34:54.779Z,4.10
2023-02-04T21:37:25.262Z,4.60
2023-02-04T21:39:54.568Z,4.30
2023-02-04T21:42:24.188Z,5.60
2023-02-04T21:44:53.384Z,9.10
2023-02-04T21:47:24.159Z,7.40
2023-02-04T21:49:53.706Z,3.30
2023-02-04T21:52:23.197Z,5.10
2023-02-04T21:54:53.062Z,4.40
2023-02-04T21:57:22.153Z,5.00
2023-02-04T21:59:52.233Z,5.10
2023-02-04T22:02:24.999Z,7.00
2023-02-04T22:04:54.034Z,5.40
2023-02-04T22:07:22.931Z,5.50
2023-02-04T22:09:52.113Z,5.10
2023-02-04T22:12:22.321Z,6.30
2023-02-04T22:14:51.327Z,11.30
2023-02-04T22:17:21.355Z,7.40
2023-02-04T22:19:50.562Z,6.00
2023-02-04T22:22:20.648Z,7.10
2023-02-04T22:24:50.003Z,7.50
2023-02-04T22:27:18.936Z,5.70
2023-02-04T22:29:47.749Z,6.20
2023-02-04T22:32:16.982Z,4.30
2023-02-04T22:34:46.230Z,5.70
2023-02-04T22:37:15.199Z,6.00
2023-02-04T22:39:44.375Z,4.30
2023-02-04T22:42:13.904Z,7.20
2023-02-04T22:44:42.880Z,4.00
2023-02-04T22:47:12.060Z,5.20
2023-02-04T22:49:41.161Z,6.10
2023-02-04T22:52:10.757Z,7.90
2023-02-04T22:54:40.859Z,9.50
2023-02-04T22:57:10.411Z,5.70
2023-02-04T22:59:39.552Z,5.40
2023-02-04T23:02:09.226Z,6.80
2023-02-04T23:04:38.863Z,5.90
2023-02-04T23:07:08.889Z,5.20
2023-02-04T23:09:38.707Z,5.50
2023-02-04T23:12:14.126Z,5.00
2023-02-04T23:14:48.476Z,6.20
2023-02-04T23:17:18.824Z,5.70
2023-02-04T23:19:48.920Z,4.30
2023-02-04T23:22:17.964Z,6.50
2023-02-04T23:24:47.371Z,7.90
2023-02-04T23:27:16.838Z,7.10
2023-02-04T23:29:45.610Z,5.00
2023-02-04T23:32:14.596Z,4.60
2023-02-04T23:34:43.171Z,4.90
2023-02-04T23:37:13.151Z,6.20
2023-02-04T23:39:42.680Z,6.00
2023-02-04T23:42:11.913Z,6.50
2023-02-04T23:44:40.838Z,5.20
2023-02-04T23:47:09.992Z,6.90
2023-02-04T23:49:38.757Z,12.10
2023-02-04T23:52:09.439Z,10.20
2023-02-04T23:54:40.449Z,8.50
2023-02-04T23:57:11.635Z,6.80
2023-02-04T23:59:42.953Z,5.50
